KBBB/BBB METAR and TAF weather

Enter ICAO airport designator
Station Type Date Time Source
KBBB METAR 2019/07/17 18:36 UTC NOAA

KBBB 171836Z AUTO 20006KT 10SM CLR 28/21 A2977 RMK AO2


Station Type Date Time Source
KBBB Decoded METAR 2019/07/17 18:36 UTC NOAA

Benson Municipal, MN, United States (KBBB) 45-19N 095-39W
Jul 17, 2019 - 02:36 PM EDT / 2019.07.17 1836 UTC
Wind: from the SSW (200 degrees) at 7 MPH (6 KT):0
Visibility: 10 mile(s):0
Sky conditions: clear
Temperature: 82 F (28 C)
Dew Point: 69 F (21 C)
Relative Humidity: 65%
Pressure (altimeter): 29.77 in. Hg (1008 hPa)
ob: KBBB 171836Z AUTO 20006KT 10SM CLR 28/21 A2977 RMK AO2
cycle: 18

Station Type Date Time Source
KBBB TAF UTC NOAA

Error!

Example: see airport list